sensor_id;sensor_type;location;lat;lon;timestamp;temperature;humidity
68556;HTU21D;55544;51.032;5.866;2023-05-18T00:02:05;12.95;55.59
68556;HTU21D;55544;51.032;5.866;2023-05-18T00:04:32;12.92;55.68
68556;HTU21D;55544;51.032;5.866;2023-05-18T00:07:00;12.90;55.94
68556;HTU21D;55544;51.032;5.866;2023-05-18T00:09:34;12.85;55.86
68556;HTU21D;55544;51.032;5.866;2023-05-18T00:12:02;12.80;56.01
68556;HTU21D;55544;51.032;5.866;2023-05-18T00:14:28;12.76;56.16
68556;HTU21D;55544;51.032;5.866;2023-05-18T00:16:54;12.71;56.36
68556;HTU21D;55544;51.032;5.866;2023-05-18T00:19:21;12.67;56.55
68556;HTU21D;55544;51.032;5.866;2023-05-18T00:21:49;12.64;56.71
68556;HTU21D;55544;51.032;5.866;2023-05-18T00:24:16;12.61;56.81
68556;HTU21D;55544;51.032;5.866;2023-05-18T00:26:44;12.58;56.91
68556;HTU21D;55544;51.032;5.866;2023-05-18T00:29:11;12.53;57.09
68556;HTU21D;55544;51.032;5.866;2023-05-18T00:31:38;12.52;57.10
68556;HTU21D;55544;51.032;5.866;2023-05-18T00:34:06;12.47;57.13
68556;HTU21D;55544;51.032;5.866;2023-05-18T00:36:32;12.45;57.18
68556;HTU21D;55544;51.032;5.866;2023-05-18T00:38:59;12.42;57.28
68556;HTU21D;55544;51.032;5.866;2023-05-18T00:41:26;12.37;57.32
68556;HTU21D;55544;51.032;5.866;2023-05-18T00:43:53;12.32;57.37
68556;HTU21D;55544;51.032;5.866;2023-05-18T00:46:19;12.28;57.65
68556;HTU21D;55544;51.032;5.866;2023-05-18T00:48:46;12.23;57.80
68556;HTU21D;55544;51.032;5.866;2023-05-18T00:51:13;12.21;57.84
68556;HTU21D;55544;51.032;5.866;2023-05-18T00:53:39;12.20;57.86
68556;HTU21D;55544;51.032;5.866;2023-05-18T00:56:06;12.17;57.87
68556;HTU21D;55544;51.032;5.866;2023-05-18T00:58:33;12.14;58.00
68556;HTU21D;55544;51.032;5.866;2023-05-18T01:00:59;12.11;58.10
68556;HTU21D;55544;51.032;5.866;2023-05-18T01:03:27;12.08;58.19
68556;HTU21D;55544;51.032;5.866;2023-05-18T01:05:55;12.05;58.29
68556;HTU21D;55544;51.032;5.866;2023-05-18T01:08:24;12.02;58.45
68556;HTU21D;55544;51.032;5.866;2023-05-18T01:11:06;11.98;58.51
68556;HTU21D;55544;51.032;5.866;2023-05-18T01:16:19;11.89;58.71
68556;HTU21D;55544;51.032;5.866;2023-05-18T01:18:55;11.84;58.81
68556;HTU21D;55544;51.032;5.866;2023-05-18T01:21:56;11.78;58.91
68556;HTU21D;55544;51.032;5.866;2023-05-18T01:24:47;11.74;59.06
68556;HTU21D;55544;51.032;5.866;2023-05-18T01:27:16;11.72;59.06
68556;HTU21D;55544;51.032;5.866;2023-05-18T01:29:44;11.70;59.17
68556;HTU21D;55544;51.032;5.866;2023-05-18T01:32:17;11.64;59.44
68556;HTU21D;55544;51.032;5.866;2023-05-18T01:34:44;11.59;59.58
68556;HTU21D;55544;51.032;5.866;2023-05-18T01:37:10;11.58;59.70
68556;HTU21D;55544;51.032;5.866;2023-05-18T01:39:37;11.55;59.76
68556;HTU21D;55544;51.032;5.866;2023-05-18T01:42:09;11.54;59.72
68556;HTU21D;55544;51.032;5.866;2023-05-18T01:44:57;11.53;59.80
68556;HTU21D;55544;51.032;5.866;2023-05-18T01:47:28;11.49;59.80
68556;HTU21D;55544;51.032;5.866;2023-05-18T01:50:10;11.41;60.02
68556;HTU21D;55544;51.032;5.866;2023-05-18T01:52:43;11.33;60.31
68556;HTU21D;55544;51.032;5.866;2023-05-18T01:55:14;11.18;60.75
68556;HTU21D;55544;51.032;5.866;2023-05-18T01:57:44;11.02;61.31
68556;HTU21D;55544;51.032;5.866;2023-05-18T02:00:15;10.97;61.42
68556;HTU21D;55544;51.032;5.866;2023-05-18T02:02:43;10.96;61.44
68556;HTU21D;55544;51.032;5.866;2023-05-18T02:05:09;10.95;61.44
68556;HTU21D;55544;51.032;5.866;2023-05-18T02:07:39;10.92;61.37
68556;HTU21D;55544;51.032;5.866;2023-05-18T02:10:06;10.82;61.58
68556;HTU21D;55544;51.032;5.866;2023-05-18T02:12:32;10.84;61.41
68556;HTU21D;55544;51.032;5.866;2023-05-18T02:14:59;10.86;61.28
68556;HTU21D;55544;51.032;5.866;2023-05-18T02:17:33;10.87;61.27
68556;HTU21D;55544;51.032;5.866;2023-05-18T02:20:03;10.82;61.43
68556;HTU21D;55544;51.032;5.866;2023-05-18T02:22:32;10.80;61.38
68556;HTU21D;55544;51.032;5.866;2023-05-18T02:24:58;10.78;61.44
68556;HTU21D;55544;51.032;5.866;2023-05-18T02:27:23;10.71;61.60
68556;HTU21D;55544;51.032;5.866;2023-05-18T02:29:49;10.55;62.05
68556;HTU21D;55544;51.032;5.866;2023-05-18T02:32:16;10.36;62.74
68556;HTU21D;55544;51.032;5.866;2023-05-18T02:34:42;10.20;63.42
68556;HTU21D;55544;51.032;5.866;2023-05-18T02:37:08;10.14;63.79
68556;HTU21D;55544;51.032;5.866;2023-05-18T02:39:33;10.19;63.59
68556;HTU21D;55544;51.032;5.866;2023-05-18T02:41:59;10.27;62.99
68556;HTU21D;55544;51.032;5.866;2023-05-18T02:44:25;10.34;62.67
68556;HTU21D;55544;51.032;5.866;2023-05-18T02:46:51;10.39;62.36
68556;HTU21D;55544;51.032;5.866;2023-05-18T02:49:18;10.43;62.20
68556;HTU21D;55544;51.032;5.866;2023-05-18T02:51:44;10.48;61.99
68556;HTU21D;55544;51.032;5.866;2023-05-18T02:54:10;10.49;61.92
68556;HTU21D;55544;51.032;5.866;2023-05-18T02:56:38;10.43;62.08
68556;HTU21D;55544;51.032;5.866;2023-05-18T02:59:22;10.42;62.28
68556;HTU21D;55544;51.032;5.866;2023-05-18T03:01:49;10.40;62.53
68556;HTU21D;55544;51.032;5.866;2023-05-18T03:04:15;10.39;62.57
68556;HTU21D;55544;51.032;5.866;2023-05-18T03:06:46;10.30;62.79
68556;HTU21D;55544;51.032;5.866;2023-05-18T03:09:18;10.26;62.74
68556;HTU21D;55544;51.032;5.866;2023-05-18T03:11:44;10.27;62.70
68556;HTU21D;55544;51.032;5.866;2023-05-18T03:14:10;10.28;62.59
68556;HTU21D;55544;51.032;5.866;2023-05-18T03:16:36;10.29;62.36
68556;HTU21D;55544;51.032;5.866;2023-05-18T03:19:05;10.28;62.30
68556;HTU21D;55544;51.032;5.866;2023-05-18T03:21:35;10.28;62.33
68556;HTU21D;55544;51.032;5.866;2023-05-18T03:24:02;10.25;62.32
68556;HTU21D;55544;51.032;5.866;2023-05-18T03:26:28;10.20;62.58
68556;HTU21D;55544;51.032;5.866;2023-05-18T03:28:58;10.20;62.78
68556;HTU21D;55544;51.032;5.866;2023-05-18T03:31:24;10.13;63.00
68556;HTU21D;55544;51.032;5.866;2023-05-18T03:33:51;10.10;63.10
68556;HTU21D;55544;51.032;5.866;2023-05-18T03:36:17;10.07;63.15
68556;HTU21D;55544;51.032;5.866;2023-05-18T03:38:43;10.06;63.21
68556;HTU21D;55544;51.032;5.866;2023-05-18T03:41:12;10.06;63.18
68556;HTU21D;55544;51.032;5.866;2023-05-18T03:43:38;10.01;63.21
68556;HTU21D;55544;51.032;5.866;2023-05-18T03:46:05;10.01;63.32
68556;HTU21D;55544;51.032;5.866;2023-05-18T03:48:31;10.05;63.37
68556;HTU21D;55544;51.032;5.866;2023-05-18T03:50:57;10.04;63.29
68556;HTU21D;55544;51.032;5.866;2023-05-18T03:53:26;10.05;63.37
68556;HTU21D;55544;51.032;5.866;2023-05-18T03:55:53;10.05;63.44
68556;HTU21D;55544;51.032;5.866;2023-05-18T03:58:19;10.05;63.32
68556;HTU21D;55544;51.032;5.866;2023-05-18T04:00:46;10.04;63.37
68556;HTU21D;55544;51.032;5.866;2023-05-18T04:03:12;10.04;63.23
68556;HTU21D;55544;51.032;5.866;2023-05-18T04:05:40;10.05;63.25
68556;HTU21D;55544;51.032;5.866;2023-05-18T04:08:08;10.04;63.30
68556;HTU21D;55544;51.032;5.866;2023-05-18T04:10:35;10.04;63.41
68556;HTU21D;55544;51.032;5.866;2023-05-18T04:13:00;10.03;63.47
68556;HTU21D;55544;51.032;5.866;2023-05-18T04:15:26;10.04;63.37
68556;HTU21D;55544;51.032;5.866;2023-05-18T04:17:53;10.03;63.56
68556;HTU21D;55544;51.032;5.866;2023-05-18T04:20:19;10.03;63.86
68556;HTU21D;55544;51.032;5.866;2023-05-18T04:22:47;10.05;64.02
68556;HTU21D;55544;51.032;5.866;2023-05-18T04:25:16;10.06;63.99
68556;HTU21D;55544;51.032;5.866;2023-05-18T04:27:43;10.07;63.96
68556;HTU21D;55544;51.032;5.866;2023-05-18T04:30:12;10.08;64.18
68556;HTU21D;55544;51.032;5.866;2023-05-18T04:32:40;10.10;64.32
68556;HTU21D;55544;51.032;5.866;2023-05-18T04:35:09;10.13;64.39
68556;HTU21D;55544;51.032;5.866;2023-05-18T04:37:35;10.15;64.48
68556;HTU21D;55544;51.032;5.866;2023-05-18T04:40:07;10.18;64.47
68556;HTU21D;55544;51.032;5.866;2023-05-18T04:42:34;10.19;64.44
68556;HTU21D;55544;51.032;5.866;2023-05-18T04:45:00;10.22;64.43
68556;HTU21D;55544;51.032;5.866;2023-05-18T04:47:30;10.24;64.53
68556;HTU21D;55544;51.032;5.866;2023-05-18T04:49:58;10.27;64.55
68556;HTU21D;55544;51.032;5.866;2023-05-18T04:52:23;10.30;64.43
68556;HTU21D;55544;51.032;5.866;2023-05-18T04:54:49;10.31;64.47
68556;HTU21D;55544;51.032;5.866;2023-05-18T04:57:15;10.34;64.50
68556;HTU21D;55544;51.032;5.866;2023-05-18T04:59:41;10.37;64.52
68556;HTU21D;55544;51.032;5.866;2023-05-18T05:02:10;10.40;64.56
68556;HTU21D;55544;51.032;5.866;2023-05-18T05:04:36;10.42;64.48
68556;HTU21D;55544;51.032;5.866;2023-05-18T05:07:02;10.48;64.44
68556;HTU21D;55544;51.032;5.866;2023-05-18T05:09:28;10.52;64.33
68556;HTU21D;55544;51.032;5.866;2023-05-18T05:11:55;10.55;64.25
68556;HTU21D;55544;51.032;5.866;2023-05-18T05:14:22;10.58;64.37
68556;HTU21D;55544;51.032;5.866;2023-05-18T05:16:48;10.60;64.42
68556;HTU21D;55544;51.032;5.866;2023-05-18T05:19:13;10.63;64.52
68556;HTU21D;55544;51.032;5.866;2023-05-18T05:21:39;10.64;64.50
68556;HTU21D;55544;51.032;5.866;2023-05-18T05:24:06;10.66;64.50
68556;HTU21D;55544;51.032;5.866;2023-05-18T05:26:32;10.69;64.70
68556;HTU21D;55544;51.032;5.866;2023-05-18T05:28:59;10.74;64.60
68556;HTU21D;55544;51.032;5.866;2023-05-18T05:31:25;10.77;64.57
68556;HTU21D;55544;51.032;5.866;2023-05-18T05:33:51;10.82;64.61
68556;HTU21D;55544;51.032;5.866;2023-05-18T05:36:16;10.85;64.61
68556;HTU21D;55544;51.032;5.866;2023-05-18T05:38:42;10.89;64.51
68556;HTU21D;55544;51.032;5.866;2023-05-18T05:41:08;10.95;64.37
68556;HTU21D;55544;51.032;5.866;2023-05-18T05:43:34;11.00;64.38
68556;HTU21D;55544;51.032;5.866;2023-05-18T05:46:00;11.04;64.36
68556;HTU21D;55544;51.032;5.866;2023-05-18T05:48:27;11.10;64.50
68556;HTU21D;55544;51.032;5.866;2023-05-18T05:50:52;11.14;64.60
68556;HTU21D;55544;51.032;5.866;2023-05-18T05:53:18;11.19;64.73
68556;HTU21D;55544;51.032;5.866;2023-05-18T05:55:46;11.24;64.79
68556;HTU21D;55544;51.032;5.866;2023-05-18T05:58:14;11.29;64.85
68556;HTU21D;55544;51.032;5.866;2023-05-18T06:00:43;11.31;64.75
68556;HTU21D;55544;51.032;5.866;2023-05-18T06:03:11;11.34;64.80
68556;HTU21D;55544;51.032;5.866;2023-05-18T06:05:43;11.37;64.72
68556;HTU21D;55544;51.032;5.866;2023-05-18T06:08:11;11.43;64.94
68556;HTU21D;55544;51.032;5.866;2023-05-18T06:10:37;11.48;65.01
68556;HTU21D;55544;51.032;5.866;2023-05-18T06:13:04;11.56;64.99
68556;HTU21D;55544;51.032;5.866;2023-05-18T06:15:37;11.62;64.56
68556;HTU21D;55544;51.032;5.866;2023-05-18T06:18:03;11.68;64.43
68556;HTU21D;55544;51.032;5.866;2023-05-18T06:20:29;11.75;64.37
68556;HTU21D;55544;51.032;5.866;2023-05-18T06:22:55;11.81;64.38
68556;HTU21D;55544;51.032;5.866;2023-05-18T06:25:41;11.89;64.16
68556;HTU21D;55544;51.032;5.866;2023-05-18T06:28:27;11.94;63.55
68556;HTU21D;55544;51.032;5.866;2023-05-18T06:31:11;11.98;63.31
68556;HTU21D;55544;51.032;5.866;2023-05-18T06:33:46;12.01;62.98
68556;HTU21D;55544;51.032;5.866;2023-05-18T06:36:12;12.03;62.71
68556;HTU21D;55544;51.032;5.866;2023-05-18T06:38:38;12.08;62.60
68556;HTU21D;55544;51.032;5.866;2023-05-18T06:41:03;12.14;62.58
68556;HTU21D;55544;51.032;5.866;2023-05-18T06:43:29;12.15;62.36
68556;HTU21D;55544;51.032;5.866;2023-05-18T06:46:02;12.17;62.87
68556;HTU21D;55544;51.032;5.866;2023-05-18T06:48:32;12.22;62.80
68556;HTU21D;55544;51.032;5.866;2023-05-18T06:50:59;12.27;62.65
68556;HTU21D;55544;51.032;5.866;2023-05-18T06:53:25;12.34;62.64
68556;HTU21D;55544;51.032;5.866;2023-05-18T06:55:51;12.41;62.73
68556;HTU21D;55544;51.032;5.866;2023-05-18T06:58:17;12.49;62.71
68556;HTU21D;55544;51.032;5.866;2023-05-18T07:00:43;12.59;62.40
68556;HTU21D;55544;51.032;5.866;2023-05-18T07:03:10;12.71;61.97
68556;HTU21D;55544;51.032;5.866;2023-05-18T07:05:35;12.85;61.63
68556;HTU21D;55544;51.032;5.866;2023-05-18T07:08:01;12.97;60.98
68556;HTU21D;55544;51.032;5.866;2023-05-18T07:10:29;13.06;60.22
68556;HTU21D;55544;51.032;5.866;2023-05-18T07:12:55;13.19;60.08
68556;HTU21D;55544;51.032;5.866;2023-05-18T07:15:20;13.37;60.22
68556;HTU21D;55544;51.032;5.866;2023-05-18T07:17:46;13.54;60.18
68556;HTU21D;55544;51.032;5.866;2023-05-18T07:20:12;13.75;59.28
68556;HTU21D;55544;51.032;5.866;2023-05-18T07:22:38;13.94;58.44
68556;HTU21D;55544;51.032;5.866;2023-05-18T07:25:04;14.09;57.80
68556;HTU21D;55544;51.032;5.866;2023-05-18T07:27:30;14.22;56.94
68556;HTU21D;55544;51.032;5.866;2023-05-18T07:29:55;14.39;56.75
68556;HTU21D;55544;51.032;5.866;2023-05-18T07:32:21;14.55;56.19
68556;HTU21D;55544;51.032;5.866;2023-05-18T07:34:47;14.72;55.38
68556;HTU21D;55544;51.032;5.866;2023-05-18T07:37:13;14.82;54.08
68556;HTU21D;55544;51.032;5.866;2023-05-18T07:39:39;14.94;54.07
68556;HTU21D;55544;51.032;5.866;2023-05-18T07:42:07;15.09;53.94
68556;HTU21D;55544;51.032;5.866;2023-05-18T07:44:33;15.18;53.25
68556;HTU21D;55544;51.032;5.866;2023-05-18T07:46:59;15.38;52.83
68556;HTU21D;55544;51.032;5.866;2023-05-18T07:49:24;15.57;51.91
68556;HTU21D;55544;51.032;5.866;2023-05-18T07:51:50;15.74;51.56
68556;HTU21D;55544;51.032;5.866;2023-05-18T07:54:17;15.91;51.67
68556;HTU21D;55544;51.032;5.866;2023-05-18T07:56:44;16.05;51.98
68556;HTU21D;55544;51.032;5.866;2023-05-18T07:59:10;16.08;50.88
68556;HTU21D;55544;51.032;5.866;2023-05-18T08:01:36;16.10;50.43
68556;HTU21D;55544;51.032;5.866;2023-05-18T08:04:04;16.10;49.82
68556;HTU21D;55544;51.032;5.866;2023-05-18T08:06:29;16.17;49.19
68556;HTU21D;55544;51.032;5.866;2023-05-18T08:08:57;16.11;49.12
68556;HTU21D;55544;51.032;5.866;2023-05-18T08:11:22;16.04;50.46
68556;HTU21D;55544;51.032;5.866;2023-05-18T08:13:49;16.22;50.76
68556;HTU21D;55544;51.032;5.866;2023-05-18T08:16:15;16.43;49.25
68556;HTU21D;55544;51.032;5.866;2023-05-18T08:18:40;16.58;48.72
68556;HTU21D;55544;51.032;5.866;2023-05-18T08:21:07;16.67;47.36
68556;HTU21D;55544;51.032;5.866;2023-05-18T08:23:37;16.65;48.15
68556;HTU21D;55544;51.032;5.866;2023-05-18T08:26:03;16.77;48.07
68556;HTU21D;55544;51.032;5.866;2023-05-18T08:28:29;16.99;47.45
68556;HTU21D;55544;51.032;5.866;2023-05-18T08:30:55;17.16;47.27
68556;HTU21D;55544;51.032;5.866;2023-05-18T08:33:21;17.32;46.61
68556;HTU21D;55544;51.032;5.866;2023-05-18T08:35:48;17.55;45.70
68556;HTU21D;55544;51.032;5.866;2023-05-18T08:38:14;17.74;45.11
68556;HTU21D;55544;51.032;5.866;2023-05-18T08:41:52;17.80;44.67
68556;HTU21D;55544;51.032;5.866;2023-05-18T08:43:52;17.78;44.61
68556;HTU21D;55544;51.032;5.866;2023-05-18T08:46:30;17.70;44.03
68556;HTU21D;55544;51.032;5.866;2023-05-18T08:48:58;17.70;44.09
68556;HTU21D;55544;51.032;5.866;2023-05-18T08:51:28;17.70;43.58
68556;HTU21D;55544;51.032;5.866;2023-05-18T08:53:54;17.76;43.42
68556;HTU21D;55544;51.032;5.866;2023-05-18T08:56:24;17.69;42.96
68556;HTU21D;55544;51.032;5.866;2023-05-18T08:58:55;17.73;43.71
68556;HTU21D;55544;51.032;5.866;2023-05-18T09:01:24;17.81;44.08
68556;HTU21D;55544;51.032;5.866;2023-05-18T09:03:53;17.95;44.29
68556;HTU21D;55544;51.032;5.866;2023-05-18T09:06:22;17.95;43.59
68556;HTU21D;55544;51.032;5.866;2023-05-18T09:08:51;17.97;43.37
68556;HTU21D;55544;51.032;5.866;2023-05-18T09:11:17;18.04;42.82
68556;HTU21D;55544;51.032;5.866;2023-05-18T09:13:44;18.17;43.22
68556;HTU21D;55544;51.032;5.866;2023-05-18T09:16:10;18.28;43.12
68556;HTU21D;55544;51.032;5.866;2023-05-18T09:18:36;18.50;42.65
68556;HTU21D;55544;51.032;5.866;2023-05-18T09:21:02;18.73;42.70
68556;HTU21D;55544;51.032;5.866;2023-05-18T09:23:28;19.02;42.65
68556;HTU21D;55544;51.032;5.866;2023-05-18T09:25:55;19.24;41.55
68556;HTU21D;55544;51.032;5.866;2023-05-18T09:28:28;19.31;39.71
68556;HTU21D;55544;51.032;5.866;2023-05-18T09:30:55;19.37;39.49
68556;HTU21D;55544;51.032;5.866;2023-05-18T09:33:21;19.51;39.80
68556;HTU21D;55544;51.032;5.866;2023-05-18T09:35:49;19.71;39.38
68556;HTU21D;55544;51.032;5.866;2023-05-18T09:38:16;19.81;38.46
68556;HTU21D;55544;51.032;5.866;2023-05-18T09:40:49;19.89;37.89
68556;HTU21D;55544;51.032;5.866;2023-05-18T09:43:19;20.03;38.40
68556;HTU21D;55544;51.032;5.866;2023-05-18T09:45:47;20.21;38.17
68556;HTU21D;55544;51.032;5.866;2023-05-18T09:48:14;20.37;37.19
68556;HTU21D;55544;51.032;5.866;2023-05-18T09:50:43;20.42;37.41
68556;HTU21D;55544;51.032;5.866;2023-05-18T09:53:11;20.54;36.98
68556;HTU21D;55544;51.032;5.866;2023-05-18T09:55:49;20.49;36.72
68556;HTU21D;55544;51.032;5.866;2023-05-18T09:58:15;20.40;36.43
68556;HTU21D;55544;51.032;5.866;2023-05-18T10:00:50;20.17;36.59
68556;HTU21D;55544;51.032;5.866;2023-05-18T10:03:23;20.10;37.24
68556;HTU21D;55544;51.032;5.866;2023-05-18T10:05:49;20.30;37.22
68556;HTU21D;55544;51.032;5.866;2023-05-18T10:08:16;20.41;36.71
68556;HTU21D;55544;51.032;5.866;2023-05-18T10:10:46;20.36;37.55
68556;HTU21D;55544;51.032;5.866;2023-05-18T10:13:15;20.36;37.38
68556;HTU21D;55544;51.032;5.866;2023-05-18T10:15:49;20.36;37.63
68556;HTU21D;55544;51.032;5.866;2023-05-18T10:18:26;20.45;36.91
68556;HTU21D;55544;51.032;5.866;2023-05-18T10:20:55;20.56;36.60
68556;HTU21D;55544;51.032;5.866;2023-05-18T10:23:22;20.66;35.76
68556;HTU21D;55544;51.032;5.866;2023-05-18T10:25:50;20.80;34.76
68556;HTU21D;55544;51.032;5.866;2023-05-18T10:28:26;21.03;35.18
68556;HTU21D;55544;51.032;5.866;2023-05-18T10:30:54;21.21;35.04
68556;HTU21D;55544;51.032;5.866;2023-05-18T10:33:25;21.37;35.12
68556;HTU21D;55544;51.032;5.866;2023-05-18T10:35:53;21.48;35.47
68556;HTU21D;55544;51.032;5.866;2023-05-18T10:38:24;21.57;35.28
68556;HTU21D;55544;51.032;5.866;2023-05-18T10:40:53;21.61;34.83
68556;HTU21D;55544;51.032;5.866;2023-05-18T10:43:22;21.53;34.87
68556;HTU21D;55544;51.032;5.866;2023-05-18T10:45:56;21.53;34.44
68556;HTU21D;55544;51.032;5.866;2023-05-18T10:48:23;21.54;34.21
68556;HTU21D;55544;51.032;5.866;2023-05-18T10:50:52;21.69;33.79
68556;HTU21D;55544;51.032;5.866;2023-05-18T10:53:20;21.89;34.04
68556;HTU21D;55544;51.032;5.866;2023-05-18T10:55:47;22.08;34.55
68556;HTU21D;55544;51.032;5.866;2023-05-18T10:58:15;22.14;33.88
68556;HTU21D;55544;51.032;5.866;2023-05-18T11:01:03;22.29;33.11
68556;HTU21D;55544;51.032;5.866;2023-05-18T11:03:31;22.46;33.08
68556;HTU21D;55544;51.032;5.866;2023-05-18T11:06:09;22.64;32.50
68556;HTU21D;55544;51.032;5.866;2023-05-18T11:08:46;22.85;31.91
68556;HTU21D;55544;51.032;5.866;2023-05-18T11:11:12;23.03;31.70
68556;HTU21D;55544;51.032;5.866;2023-05-18T11:13:44;23.20;32.17
68556;HTU21D;55544;51.032;5.866;2023-05-18T11:16:10;23.27;30.94
68556;HTU21D;55544;51.032;5.866;2023-05-18T11:18:50;23.17;30.78
68556;HTU21D;55544;51.032;5.866;2023-05-18T11:21:20;23.20;30.66
68556;HTU21D;55544;51.032;5.866;2023-05-18T11:24:21;23.31;30.33
68556;HTU21D;55544;51.032;5.866;2023-05-18T11:26:53;23.35;30.31
68556;HTU21D;55544;51.032;5.866;2023-05-18T11:29:29;23.43;30.57
68556;HTU21D;55544;51.032;5.866;2023-05-18T11:31:55;23.51;29.59
68556;HTU21D;55544;51.032;5.866;2023-05-18T11:34:45;23.62;29.77
68556;HTU21D;55544;51.032;5.866;2023-05-18T11:37:16;23.80;29.76
68556;HTU21D;55544;51.032;5.866;2023-05-18T11:39:53;23.99;28.84
68556;HTU21D;55544;51.032;5.866;2023-05-18T11:42:19;24.14;28.81
68556;HTU21D;55544;51.032;5.866;2023-05-18T11:44:52;24.23;29.32
68556;HTU21D;55544;51.032;5.866;2023-05-18T11:47:24;24.31;28.71
68556;HTU21D;55544;51.032;5.866;2023-05-18T11:49:54;24.09;29.40
68556;HTU21D;55544;51.032;5.866;2023-05-18T11:52:24;24.01;30.43
68556;HTU21D;55544;51.032;5.866;2023-05-18T11:54:58;24.11;29.56
68556;HTU21D;55544;51.032;5.866;2023-05-18T11:57:37;24.16;28.68
68556;HTU21D;55544;51.032;5.866;2023-05-18T12:00:08;24.34;27.43
68556;HTU21D;55544;51.032;5.866;2023-05-18T12:02:44;24.42;27.17
68556;HTU21D;55544;51.032;5.866;2023-05-18T12:05:11;24.49;27.91
68556;HTU21D;55544;51.032;5.866;2023-05-18T12:07:38;24.51;28.13
68556;HTU21D;55544;51.032;5.866;2023-05-18T12:10:13;24.64;28.07
68556;HTU21D;55544;51.032;5.866;2023-05-18T12:12:40;24.88;28.29
68556;HTU21D;55544;51.032;5.866;2023-05-18T12:15:07;25.14;28.10
68556;HTU21D;55544;51.032;5.866;2023-05-18T12:17:37;25.47;27.56
68556;HTU21D;55544;51.032;5.866;2023-05-18T12:20:03;25.68;27.10
68556;HTU21D;55544;51.032;5.866;2023-05-18T12:22:30;25.93;28.13
68556;HTU21D;55544;51.032;5.866;2023-05-18T12:24:55;26.08;28.00
68556;HTU21D;55544;51.032;5.866;2023-05-18T12:27:21;26.20;26.91
68556;HTU21D;55544;51.032;5.866;2023-05-18T12:29:48;26.17;26.78
68556;HTU21D;55544;51.032;5.866;2023-05-18T12:32:14;26.19;26.68
68556;HTU21D;55544;51.032;5.866;2023-05-18T12:34:43;26.02;25.43
68556;HTU21D;55544;51.032;5.866;2023-05-18T12:37:08;25.82;26.27
68556;HTU21D;55544;51.032;5.866;2023-05-18T12:39:35;25.82;25.85
68556;HTU21D;55544;51.032;5.866;2023-05-18T12:42:27;25.93;26.39
68556;HTU21D;55544;51.032;5.866;2023-05-18T12:44:53;25.92;26.57
68556;HTU21D;55544;51.032;5.866;2023-05-18T12:47:19;25.86;27.10
68556;HTU21D;55544;51.032;5.866;2023-05-18T12:49:48;25.81;27.10
68556;HTU21D;55544;51.032;5.866;2023-05-18T12:52:15;25.86;26.08
68556;HTU21D;55544;51.032;5.866;2023-05-18T12:54:52;25.89;25.79
68556;HTU21D;55544;51.032;5.866;2023-05-18T12:57:28;26.04;25.59
68556;HTU21D;55544;51.032;5.866;2023-05-18T13:00:00;26.22;26.14
68556;HTU21D;55544;51.032;5.866;2023-05-18T13:02:32;26.11;25.77
68556;HTU21D;55544;51.032;5.866;2023-05-18T13:05:00;26.15;26.15
68556;HTU21D;55544;51.032;5.866;2023-05-18T13:07:26;26.25;26.49
68556;HTU21D;55544;51.032;5.866;2023-05-18T13:09:52;26.46;25.65
68556;HTU21D;55544;51.032;5.866;2023-05-18T13:12:47;26.15;25.67
68556;HTU21D;55544;51.032;5.866;2023-05-18T13:15:17;26.38;25.62
68556;HTU21D;55544;51.032;5.866;2023-05-18T13:18:11;26.78;25.00
68556;HTU21D;55544;51.032;5.866;2023-05-18T13:20:50;27.13;24.78
68556;HTU21D;55544;51.032;5.866;2023-05-18T13:23:18;27.31;24.51
68556;HTU21D;55544;51.032;5.866;2023-05-18T13:25:44;27.52;24.06
68556;HTU21D;55544;51.032;5.866;2023-05-18T13:28:15;27.49;24.07
68556;HTU21D;55544;51.032;5.866;2023-05-18T13:30:42;27.32;24.36
68556;HTU21D;55544;51.032;5.866;2023-05-18T13:33:09;27.14;23.96
68556;HTU21D;55544;51.032;5.866;2023-05-18T13:35:35;26.95;24.00
68556;HTU21D;55544;51.032;5.866;2023-05-18T13:38:02;26.73;24.60
68556;HTU21D;55544;51.032;5.866;2023-05-18T13:40:28;26.56;24.59
68556;HTU21D;55544;51.032;5.866;2023-05-18T13:42:53;26.32;24.77
68556;HTU21D;55544;51.032;5.866;2023-05-18T13:45:19;26.17;24.88
68556;HTU21D;55544;51.032;5.866;2023-05-18T13:47:48;26.07;25.48
68556;HTU21D;55544;51.032;5.866;2023-05-18T13:50:21;25.93;25.88
68556;HTU21D;55544;51.032;5.866;2023-05-18T13:52:47;25.69;25.92
68556;HTU21D;55544;51.032;5.866;2023-05-18T13:55:13;25.36;26.42
68556;HTU21D;55544;51.032;5.866;2023-05-18T13:57:39;25.22;26.76
68556;HTU21D;55544;51.032;5.866;2023-05-18T14:00:05;25.16;27.00
68556;HTU21D;55544;51.032;5.866;2023-05-18T14:02:40;25.00;27.21
68556;HTU21D;55544;51.032;5.866;2023-05-18T14:05:07;24.89;27.16
68556;HTU21D;55544;51.032;5.866;2023-05-18T14:07:37;24.88;27.56
68556;HTU21D;55544;51.032;5.866;2023-05-18T14:10:04;24.95;27.33
68556;HTU21D;55544;51.032;5.866;2023-05-18T14:12:30;25.02;27.65
68556;HTU21D;55544;51.032;5.866;2023-05-18T14:14:57;25.16;27.98
68556;HTU21D;55544;51.032;5.866;2023-05-18T14:17:23;25.24;27.34
68556;HTU21D;55544;51.032;5.866;2023-05-18T14:19:49;25.31;27.61
68556;HTU21D;55544;51.032;5.866;2023-05-18T14:22:14;25.37;27.44
68556;HTU21D;55544;51.032;5.866;2023-05-18T14:24:42;25.48;27.39
68556;HTU21D;55544;51.032;5.866;2023-05-18T14:27:07;25.51;27.24
68556;HTU21D;55544;51.032;5.866;2023-05-18T14:29:33;25.52;27.53
68556;HTU21D;55544;51.032;5.866;2023-05-18T14:31:59;25.47;27.88
68556;HTU21D;55544;51.032;5.866;2023-05-18T14:34:25;25.48;27.73
68556;HTU21D;55544;51.032;5.866;2023-05-18T14:36:51;25.47;27.78
68556;HTU21D;55544;51.032;5.866;2023-05-18T14:39:17;25.51;27.26
68556;HTU21D;55544;51.032;5.866;2023-05-18T14:41:43;25.59;27.43
68556;HTU21D;55544;51.032;5.866;2023-05-18T14:44:09;25.62;27.20
68556;HTU21D;55544;51.032;5.866;2023-05-18T14:46:36;25.67;27.33
68556;HTU21D;55544;51.032;5.866;2023-05-18T14:49:02;25.79;26.86
68556;HTU21D;55544;51.032;5.866;2023-05-18T14:51:27;25.92;26.47
68556;HTU21D;55544;51.032;5.866;2023-05-18T14:53:53;26.12;25.98
68556;HTU21D;55544;51.032;5.866;2023-05-18T14:56:19;26.11;25.78
68556;HTU21D;55544;51.032;5.866;2023-05-18T14:58:44;25.99;26.13
68556;HTU21D;55544;51.032;5.866;2023-05-18T15:01:10;25.92;26.44
68556;HTU21D;55544;51.032;5.866;2023-05-18T15:03:36;25.90;26.58
68556;HTU21D;55544;51.032;5.866;2023-05-18T15:06:01;25.95;26.17
68556;HTU21D;55544;51.032;5.866;2023-05-18T15:08:27;26.07;26.06
68556;HTU21D;55544;51.032;5.866;2023-05-18T15:10:53;26.08;25.79
68556;HTU21D;55544;51.032;5.866;2023-05-18T15:13:19;25.96;26.14
68556;HTU21D;55544;51.032;5.866;2023-05-18T15:15:45;25.84;25.90
68556;HTU21D;55544;51.032;5.866;2023-05-18T15:18:10;25.74;25.73
68556;HTU21D;55544;51.032;5.866;2023-05-18T15:20:39;25.78;26.08
68556;HTU21D;55544;51.032;5.866;2023-05-18T15:23:09;25.88;26.02
68556;HTU21D;55544;51.032;5.866;2023-05-18T15:25:36;25.88;26.09
68556;HTU21D;55544;51.032;5.866;2023-05-18T15:28:02;25.82;26.40